KPOE/POE METAR and TAF weather

Enter ICAO airport designator
Station Type Date Time Source
KPOE METAR 2019/02/16 07:43 UTC NOAA

KPOE 160743Z AUTO 25007KT 8SM OVC010 19/17 A2980 RMK AO2 SLP091


Station Type Date Time Source
KPOE Decoded METAR 2019/02/16 07:43 UTC NOAA

Fort Polk, Polk AAF Ft Polk, LA, United States (KPOE) 31-03N 093-11-38W
Feb 16, 2019 - 02:43 AM EST / 2019.02.16 0743 UTC
Wind: from the WSW (250 degrees) at 8 MPH (7 KT):0
Visibility: 8 mile(s):0
Sky conditions: overcast
Temperature: 66 F (19 C)
Dew Point: 62 F (17 C)
Relative Humidity: 88%
Pressure (altimeter): 29.8 in. Hg (1009 hPa)
ob: KPOE 160743Z AUTO 25007KT 8SM OVC010 19/17 A2980 RMK AO2 SLP091
cycle: 7

Station Type Date Time Source
KPOE TAF 2019/02/16 05:39 UTC NOAA

TAF
AMD KPOE 160530Z 1605/1706 21009KT 9999 BKN010 510005 QNH2965INS
BECMG 1606/1607 22006KT 9999 BKN009 QNH2974INS
BECMG 1612/1613 22006KT 6000 BR OVC009 QNH2974INS
BECMG 1613/1614 04010G15KT 9999 NSW OVC006 QNH2976INS
BECMG 1617/1618 06006KT 9999 OVC012 QNH2975INS
BECMG 1702/1703 VRB06KT 8000 BR OVC005 QNH2972INS TX21/1608Z TN11/1617Z


Example: see airport list